sensor_id;sensor_type;location;lat;lon;timestamp;P1;durP1;ratioP1;P2;durP2;ratioP2
76964;SDS011;65903;51.452;7.198;2023-04-03T00:00:12;10.88;;;8.73;;
76964;SDS011;65903;51.452;7.198;2023-04-03T00:01:14;9.50;;;7.20;;
76964;SDS011;65903;51.452;7.198;2023-04-03T00:02:15;11.95;;;7.97;;
76964;SDS011;65903;51.452;7.198;2023-04-03T00:03:16;8.95;;;7.07;;
76964;SDS011;65903;51.452;7.198;2023-04-03T00:04:20;10.60;;;8.30;;
76964;SDS011;65903;51.452;7.198;2023-04-03T00:05:24;11.20;;;7.85;;
76964;SDS011;65903;51.452;7.198;2023-04-03T00:06:29;9.02;;;7.65;;
76964;SDS011;65903;51.452;7.198;2023-04-03T00:07:30;11.60;;;7.32;;
76964;SDS011;65903;51.452;7.198;2023-04-03T00:08:31;9.68;;;6.85;;
76964;SDS011;65903;51.452;7.198;2023-04-03T00:09:32;11.23;;;7.43;;
76964;SDS011;65903;51.452;7.198;2023-04-03T00:10:33;11.45;;;7.63;;
76964;SDS011;65903;51.452;7.198;2023-04-03T00:11:34;11.63;;;7.38;;
76964;SDS011;65903;51.452;7.198;2023-04-03T00:12:35;10.07;;;7.93;;
76964;SDS011;65903;51.452;7.198;2023-04-03T00:13:36;9.05;;;6.65;;
76964;SDS011;65903;51.452;7.198;2023-04-03T00:14:37;11.02;;;7.55;;
76964;SDS011;65903;51.452;7.198;2023-04-03T00:15:38;9.65;;;6.63;;
76964;SDS011;65903;51.452;7.198;2023-04-03T00:16:39;11.05;;;8.18;;
76964;SDS011;65903;51.452;7.198;2023-04-03T00:17:39;13.75;;;8.05;;
76964;SDS011;65903;51.452;7.198;2023-04-03T00:18:42;12.57;;;8.93;;
76964;SDS011;65903;51.452;7.198;2023-04-03T00:19:44;9.23;;;7.53;;
76964;SDS011;65903;51.452;7.198;2023-04-03T00:20:44;13.15;;;7.68;;
76964;SDS011;65903;51.452;7.198;2023-04-03T00:21:48;9.27;;;7.35;;
76964;SDS011;65903;51.452;7.198;2023-04-03T00:22:51;8.98;;;7.20;;
76964;SDS011;65903;51.452;7.198;2023-04-03T00:23:55;10.98;;;7.25;;
76964;SDS011;65903;51.452;7.198;2023-04-03T00:24:55;9.40;;;7.22;;
76964;SDS011;65903;51.452;7.198;2023-04-03T00:25:56;8.90;;;8.00;;
76964;SDS011;65903;51.452;7.198;2023-04-03T00:27:02;9.98;;;7.60;;
76964;SDS011;65903;51.452;7.198;2023-04-03T00:28:05;11.95;;;8.32;;
76964;SDS011;65903;51.452;7.198;2023-04-03T00:29:06;10.75;;;7.88;;
76964;SDS011;65903;51.452;7.198;2023-04-03T00:30:07;9.88;;;7.30;;
76964;SDS011;65903;51.452;7.198;2023-04-03T00:31:14;10.20;;;7.13;;
76964;SDS011;65903;51.452;7.198;2023-04-03T00:32:18;11.40;;;9.32;;
76964;SDS011;65903;51.452;7.198;2023-04-03T00:33:21;11.63;;;7.72;;
76964;SDS011;65903;51.452;7.198;2023-04-03T00:34:22;9.60;;;8.52;;
76964;SDS011;65903;51.452;7.198;2023-04-03T00:35:25;11.07;;;6.97;;
76964;SDS011;65903;51.452;7.198;2023-04-03T00:36:26;9.75;;;7.95;;
76964;SDS011;65903;51.452;7.198;2023-04-03T00:37:27;11.05;;;7.43;;
76964;SDS011;65903;51.452;7.198;2023-04-03T00:38:28;10.20;;;8.13;;
76964;SDS011;65903;51.452;7.198;2023-04-03T00:39:28;11.68;;;7.10;;
76964;SDS011;65903;51.452;7.198;2023-04-03T00:40:32;9.85;;;7.57;;
76964;SDS011;65903;51.452;7.198;2023-04-03T00:41:35;10.55;;;7.85;;
76964;SDS011;65903;51.452;7.198;2023-04-03T00:43:39;13.02;;;7.57;;
76964;SDS011;65903;51.452;7.198;2023-04-03T00:45:42;9.45;;;7.68;;
76964;SDS011;65903;51.452;7.198;2023-04-03T00:46:44;12.05;;;8.43;;
76964;SDS011;65903;51.452;7.198;2023-04-03T00:48:48;11.15;;;7.55;;
76964;SDS011;65903;51.452;7.198;2023-04-03T00:49:49;12.77;;;8.73;;
76964;SDS011;65903;51.452;7.198;2023-04-03T00:50:53;11.63;;;8.38;;
76964;SDS011;65903;51.452;7.198;2023-04-03T00:51:54;11.73;;;9.07;;
76964;SDS011;65903;51.452;7.198;2023-04-03T00:52:56;10.38;;;7.93;;
76964;SDS011;65903;51.452;7.198;2023-04-03T00:54:00;12.20;;;8.90;;
76964;SDS011;65903;51.452;7.198;2023-04-03T00:55:04;9.55;;;8.15;;
76964;SDS011;65903;51.452;7.198;2023-04-03T00:56:07;14.15;;;9.00;;
76964;SDS011;65903;51.452;7.198;2023-04-03T00:57:10;11.73;;;8.43;;
76964;SDS011;65903;51.452;7.198;2023-04-03T00:58:11;13.02;;;7.68;;
76964;SDS011;65903;51.452;7.198;2023-04-03T00:59:14;11.55;;;7.97;;
76964;SDS011;65903;51.452;7.198;2023-04-03T01:00:20;10.10;;;8.40;;
76964;SDS011;65903;51.452;7.198;2023-04-03T01:01:25;12.20;;;8.35;;
76964;SDS011;65903;51.452;7.198;2023-04-03T01:02:28;12.77;;;8.23;;
76964;SDS011;65903;51.452;7.198;2023-04-03T01:03:33;10.23;;;7.60;;
76964;SDS011;65903;51.452;7.198;2023-04-03T01:04:38;11.00;;;8.73;;
76964;SDS011;65903;51.452;7.198;2023-04-03T01:05:40;11.13;;;8.45;;
76964;SDS011;65903;51.452;7.198;2023-04-03T01:06:41;13.90;;;8.30;;
76964;SDS011;65903;51.452;7.198;2023-04-03T01:07:42;9.43;;;8.45;;
76964;SDS011;65903;51.452;7.198;2023-04-03T01:08:45;9.05;;;7.22;;
76964;SDS011;65903;51.452;7.198;2023-04-03T01:09:51;12.15;;;8.40;;
76964;SDS011;65903;51.452;7.198;2023-04-03T01:10:53;12.35;;;8.45;;
76964;SDS011;65903;51.452;7.198;2023-04-03T01:13:38;13.10;;;8.48;;
76964;SDS011;65903;51.452;7.198;2023-04-03T01:14:38;12.05;;;8.82;;
76964;SDS011;65903;51.452;7.198;2023-04-03T01:15:39;12.27;;;9.20;;
76964;SDS011;65903;51.452;7.198;2023-04-03T01:16:40;12.05;;;9.32;;
76964;SDS011;65903;51.452;7.198;2023-04-03T01:17:59;12.13;;;8.93;;
76964;SDS011;65903;51.452;7.198;2023-04-03T01:19:01;12.77;;;9.05;;
76964;SDS011;65903;51.452;7.198;2023-04-03T01:25:44;13.32;;;8.48;;
76964;SDS011;65903;51.452;7.198;2023-04-03T01:26:47;12.38;;;8.05;;
76964;SDS011;65903;51.452;7.198;2023-04-03T01:27:48;11.88;;;8.80;;
76964;SDS011;65903;51.452;7.198;2023-04-03T01:28:49;10.55;;;8.73;;
76964;SDS011;65903;51.452;7.198;2023-04-03T01:29:52;10.80;;;7.32;;
76964;SDS011;65903;51.452;7.198;2023-04-03T01:30:58;13.80;;;8.57;;
76964;SDS011;65903;51.452;7.198;2023-04-03T01:32:12;12.38;;;9.05;;
76964;SDS011;65903;51.452;7.198;2023-04-03T01:33:13;9.70;;;7.47;;
76964;SDS011;65903;51.452;7.198;2023-04-03T01:35:17;9.80;;;7.30;;
76964;SDS011;65903;51.452;7.198;2023-04-03T01:37:22;14.73;;;7.15;;
76964;SDS011;65903;51.452;7.198;2023-04-03T01:38:23;10.98;;;7.68;;
76964;SDS011;65903;51.452;7.198;2023-04-03T01:39:24;9.90;;;7.05;;
76964;SDS011;65903;51.452;7.198;2023-04-03T01:40:25;9.82;;;7.53;;
76964;SDS011;65903;51.452;7.198;2023-04-03T01:41:27;9.77;;;7.82;;
76964;SDS011;65903;51.452;7.198;2023-04-03T01:42:28;10.75;;;7.28;;
76964;SDS011;65903;51.452;7.198;2023-04-03T01:43:29;10.50;;;8.07;;
76964;SDS011;65903;51.452;7.198;2023-04-03T01:44:30;11.30;;;7.20;;
76964;SDS011;65903;51.452;7.198;2023-04-03T01:45:31;10.27;;;7.40;;
76964;SDS011;65903;51.452;7.198;2023-04-03T01:46:35;10.13;;;7.75;;
76964;SDS011;65903;51.452;7.198;2023-04-03T01:47:36;9.80;;;7.55;;
76964;SDS011;65903;51.452;7.198;2023-04-03T01:48:36;10.55;;;7.82;;
76964;SDS011;65903;51.452;7.198;2023-04-03T01:49:37;9.90;;;7.30;;
76964;SDS011;65903;51.452;7.198;2023-04-03T01:50:40;10.38;;;7.80;;
76964;SDS011;65903;51.452;7.198;2023-04-03T01:51:41;13.02;;;7.80;;
76964;SDS011;65903;51.452;7.198;2023-04-03T01:52:45;9.23;;;6.85;;
76964;SDS011;65903;51.452;7.198;2023-04-03T01:53:45;9.27;;;7.28;;
76964;SDS011;65903;51.452;7.198;2023-04-03T01:54:46;10.18;;;7.50;;
76964;SDS011;65903;51.452;7.198;2023-04-03T01:55:49;11.63;;;8.30;;
76964;SDS011;65903;51.452;7.198;2023-04-03T01:56:50;9.90;;;7.00;;
76964;SDS011;65903;51.452;7.198;2023-04-03T01:57:51;12.13;;;7.80;;
76964;SDS011;65903;51.452;7.198;2023-04-03T01:58:55;9.95;;;7.00;;
76964;SDS011;65903;51.452;7.198;2023-04-03T01:59:56;11.35;;;7.68;;
76964;SDS011;65903;51.452;7.198;2023-04-03T02:00:59;10.05;;;6.80;;
76964;SDS011;65903;51.452;7.198;2023-04-03T02:01:59;11.75;;;8.10;;
76964;SDS011;65903;51.452;7.198;2023-04-03T02:03:02;9.52;;;7.03;;
76964;SDS011;65903;51.452;7.198;2023-04-03T02:05:04;9.50;;;7.30;;
76964;SDS011;65903;51.452;7.198;2023-04-03T02:06:05;9.38;;;7.13;;
76964;SDS011;65903;51.452;7.198;2023-04-03T02:07:06;8.60;;;5.88;;
76964;SDS011;65903;51.452;7.198;2023-04-03T02:08:07;10.55;;;7.78;;
76964;SDS011;65903;51.452;7.198;2023-04-03T02:09:08;10.00;;;6.47;;
76964;SDS011;65903;51.452;7.198;2023-04-03T02:10:11;10.57;;;7.00;;
76964;SDS011;65903;51.452;7.198;2023-04-03T02:11:17;10.27;;;6.28;;
76964;SDS011;65903;51.452;7.198;2023-04-03T02:12:18;10.40;;;7.72;;
76964;SDS011;65903;51.452;7.198;2023-04-03T02:13:19;11.82;;;7.78;;
76964;SDS011;65903;51.452;7.198;2023-04-03T02:14:20;11.57;;;7.32;;
76964;SDS011;65903;51.452;7.198;2023-04-03T02:15:23;8.70;;;6.15;;
76964;SDS011;65903;51.452;7.198;2023-04-03T02:16:27;12.05;;;6.95;;
76964;SDS011;65903;51.452;7.198;2023-04-03T02:17:29;9.95;;;6.35;;
76964;SDS011;65903;51.452;7.198;2023-04-03T02:18:30;8.95;;;6.40;;
76964;SDS011;65903;51.452;7.198;2023-04-03T02:19:31;9.52;;;6.35;;
76964;SDS011;65903;51.452;7.198;2023-04-03T02:20:32;8.50;;;6.18;;
76964;SDS011;65903;51.452;7.198;2023-04-03T02:21:33;11.43;;;5.93;;
76964;SDS011;65903;51.452;7.198;2023-04-03T02:22:34;10.32;;;6.53;;
76964;SDS011;65903;51.452;7.198;2023-04-03T02:23:34;11.50;;;6.63;;
76964;SDS011;65903;51.452;7.198;2023-04-03T02:24:38;10.35;;;5.90;;
76964;SDS011;65903;51.452;7.198;2023-04-03T02:25:40;10.10;;;5.90;;
76964;SDS011;65903;51.452;7.198;2023-04-03T02:26:41;9.27;;;6.40;;
76964;SDS011;65903;51.452;7.198;2023-04-03T02:27:42;8.48;;;6.00;;
76964;SDS011;65903;51.452;7.198;2023-04-03T02:28:45;10.30;;;6.63;;
76964;SDS011;65903;51.452;7.198;2023-04-03T02:29:48;7.45;;;6.43;;
76964;SDS011;65903;51.452;7.198;2023-04-03T02:31:51;10.95;;;5.95;;
76964;SDS011;65903;51.452;7.198;2023-04-03T02:32:52;9.50;;;6.32;;
76964;SDS011;65903;51.452;7.198;2023-04-03T02:33:53;11.13;;;6.72;;
76964;SDS011;65903;51.452;7.198;2023-04-03T02:34:56;8.27;;;6.38;;
76964;SDS011;65903;51.452;7.198;2023-04-03T02:36:00;10.27;;;6.53;;
76964;SDS011;65903;51.452;7.198;2023-04-03T02:37:01;9.57;;;6.55;;
76964;SDS011;65903;51.452;7.198;2023-04-03T02:38:01;8.80;;;6.55;;
76964;SDS011;65903;51.452;7.198;2023-04-03T02:39:04;8.32;;;5.82;;
76964;SDS011;65903;51.452;7.198;2023-04-03T02:40:08;8.40;;;6.22;;
76964;SDS011;65903;51.452;7.198;2023-04-03T02:41:12;9.57;;;6.45;;
76964;SDS011;65903;51.452;7.198;2023-04-03T02:42:15;8.80;;;5.88;;
76964;SDS011;65903;51.452;7.198;2023-04-03T02:43:18;10.00;;;5.53;;
76964;SDS011;65903;51.452;7.198;2023-04-03T02:44:19;10.60;;;5.63;;
76964;SDS011;65903;51.452;7.198;2023-04-03T02:45:21;7.68;;;5.38;;
76964;SDS011;65903;51.452;7.198;2023-04-03T02:46:25;7.20;;;5.45;;
76964;SDS011;65903;51.452;7.198;2023-04-03T02:47:26;7.70;;;5.18;;
76964;SDS011;65903;51.452;7.198;2023-04-03T02:48:27;7.43;;;5.38;;
76964;SDS011;65903;51.452;7.198;2023-04-03T02:49:28;8.68;;;6.13;;
76964;SDS011;65903;51.452;7.198;2023-04-03T02:50:31;8.55;;;5.45;;
76964;SDS011;65903;51.452;7.198;2023-04-03T02:51:32;8.70;;;5.00;;
76964;SDS011;65903;51.452;7.198;2023-04-03T02:53:36;7.32;;;5.88;;
76964;SDS011;65903;51.452;7.198;2023-04-03T02:54:37;12.45;;;5.53;;
76964;SDS011;65903;51.452;7.198;2023-04-03T02:56:45;6.35;;;4.80;;
76964;SDS011;65903;51.452;7.198;2023-04-03T02:57:46;6.30;;;4.60;;
76964;SDS011;65903;51.452;7.198;2023-04-03T02:58:50;8.70;;;5.35;;
76964;SDS011;65903;51.452;7.198;2023-04-03T02:59:54;7.38;;;4.90;;
76964;SDS011;65903;51.452;7.198;2023-04-03T03:00:54;8.68;;;4.88;;
76964;SDS011;65903;51.452;7.198;2023-04-03T03:01:55;7.05;;;4.50;;
76964;SDS011;65903;51.452;7.198;2023-04-03T03:02:56;5.95;;;4.13;;
76964;SDS011;65903;51.452;7.198;2023-04-03T03:03:57;7.95;;;4.55;;
76964;SDS011;65903;51.452;7.198;2023-04-03T03:05:01;5.53;;;4.75;;
76964;SDS011;65903;51.452;7.198;2023-04-03T03:08:06;7.07;;;4.45;;
76964;SDS011;65903;51.452;7.198;2023-04-03T03:09:07;8.18;;;4.25;;
76964;SDS011;65903;51.452;7.198;2023-04-03T03:10:10;7.40;;;4.40;;
76964;SDS011;65903;51.452;7.198;2023-04-03T03:11:11;6.95;;;4.30;;
76964;SDS011;65903;51.452;7.198;2023-04-03T03:12:12;8.07;;;4.93;;
76964;SDS011;65903;51.452;7.198;2023-04-03T03:13:16;10.15;;;4.38;;
76964;SDS011;65903;51.452;7.198;2023-04-03T03:14:17;6.97;;;4.43;;
76964;SDS011;65903;51.452;7.198;2023-04-03T03:16:23;6.05;;;4.28;;
76964;SDS011;65903;51.452;7.198;2023-04-03T03:17:26;6.90;;;4.57;;
76964;SDS011;65903;51.452;7.198;2023-04-03T03:18:31;7.88;;;3.85;;
76964;SDS011;65903;51.452;7.198;2023-04-03T03:19:35;6.20;;;3.78;;
76964;SDS011;65903;51.452;7.198;2023-04-03T03:20:35;7.38;;;4.40;;
76964;SDS011;65903;51.452;7.198;2023-04-03T03:21:36;8.63;;;4.53;;
76964;SDS011;65903;51.452;7.198;2023-04-03T03:22:37;6.45;;;3.38;;
76964;SDS011;65903;51.452;7.198;2023-04-03T03:23:40;7.78;;;4.60;;
76964;SDS011;65903;51.452;7.198;2023-04-03T03:24:46;10.60;;;4.50;;
76964;SDS011;65903;51.452;7.198;2023-04-03T03:25:49;10.07;;;4.40;;
76964;SDS011;65903;51.452;7.198;2023-04-03T03:26:50;6.97;;;4.57;;
76964;SDS011;65903;51.452;7.198;2023-04-03T03:28:53;6.28;;;4.50;;
76964;SDS011;65903;51.452;7.198;2023-04-03T03:29:54;5.68;;;4.22;;
76964;SDS011;65903;51.452;7.198;2023-04-03T03:31:58;7.60;;;4.03;;
76964;SDS011;65903;51.452;7.198;2023-04-03T03:33:02;8.23;;;4.22;;
76964;SDS011;65903;51.452;7.198;2023-04-03T03:34:03;7.80;;;4.97;;
76964;SDS011;65903;51.452;7.198;2023-04-03T03:35:04;6.38;;;4.20;;
76964;SDS011;65903;51.452;7.198;2023-04-03T03:36:05;8.45;;;4.07;;
76964;SDS011;65903;51.452;7.198;2023-04-03T03:37:06;7.13;;;4.47;;
76964;SDS011;65903;51.452;7.198;2023-04-03T03:38:07;7.50;;;4.47;;
76964;SDS011;65903;51.452;7.198;2023-04-03T03:39:10;6.75;;;4.82;;
76964;SDS011;65903;51.452;7.198;2023-04-03T03:40:13;9.77;;;4.40;;
76964;SDS011;65903;51.452;7.198;2023-04-03T03:41:14;6.00;;;3.95;;
76964;SDS011;65903;51.452;7.198;2023-04-03T03:42:17;6.97;;;3.75;;
76964;SDS011;65903;51.452;7.198;2023-04-03T03:43:17;8.32;;;3.88;;
76964;SDS011;65903;51.452;7.198;2023-04-03T03:44:19;6.53;;;3.55;;
76964;SDS011;65903;51.452;7.198;2023-04-03T03:45:20;9.30;;;3.80;;
76964;SDS011;65903;51.452;7.198;2023-04-03T03:46:20;7.95;;;4.75;;
76964;SDS011;65903;51.452;7.198;2023-04-03T03:47:21;5.78;;;4.05;;
76964;SDS011;65903;51.452;7.198;2023-04-03T03:48:21;10.15;;;4.43;;
76964;SDS011;65903;51.452;7.198;2023-04-03T03:49:22;8.25;;;3.95;;
76964;SDS011;65903;51.452;7.198;2023-04-03T03:51:31;6.85;;;3.97;;
76964;SDS011;65903;51.452;7.198;2023-04-03T03:52:34;6.70;;;3.20;;
76964;SDS011;65903;51.452;7.198;2023-04-03T03:53:35;4.80;;;3.45;;
76964;SDS011;65903;51.452;7.198;2023-04-03T03:54:36;6.10;;;3.28;;
76964;SDS011;65903;51.452;7.198;2023-04-03T03:55:37;8.75;;;3.83;;
76964;SDS011;65903;51.452;7.198;2023-04-03T03:56:38;7.68;;;3.80;;
76964;SDS011;65903;51.452;7.198;2023-04-03T03:57:39;10.07;;;4.03;;
76964;SDS011;65903;51.452;7.198;2023-04-03T03:58:40;9.10;;;4.00;;
76964;SDS011;65903;51.452;7.198;2023-04-03T03:59:40;7.18;;;3.50;;
76964;SDS011;65903;51.452;7.198;2023-04-03T04:00:42;8.63;;;3.97;;
76964;SDS011;65903;51.452;7.198;2023-04-03T04:01:42;5.43;;;4.05;;
76964;SDS011;65903;51.452;7.198;2023-04-03T04:02:43;6.68;;;4.00;;
76964;SDS011;65903;51.452;7.198;2023-04-03T04:03:44;5.95;;;5.10;;
76964;SDS011;65903;51.452;7.198;2023-04-03T04:04:45;6.20;;;3.92;;
76964;SDS011;65903;51.452;7.198;2023-04-03T04:05:49;5.97;;;4.50;;
76964;SDS011;65903;51.452;7.198;2023-04-03T04:06:49;8.40;;;3.80;;
76964;SDS011;65903;51.452;7.198;2023-04-03T04:07:50;9.15;;;3.75;;
76964;SDS011;65903;51.452;7.198;2023-04-03T04:08:53;6.93;;;3.50;;
76964;SDS011;65903;51.452;7.198;2023-04-03T04:09:59;7.88;;;3.72;;
76964;SDS011;65903;51.452;7.198;2023-04-03T04:11:00;6.38;;;3.80;;
76964;SDS011;65903;51.452;7.198;2023-04-03T04:12:00;8.60;;;3.58;;
76964;SDS011;65903;51.452;7.198;2023-04-03T04:13:01;8.38;;;3.78;;
76964;SDS011;65903;51.452;7.198;2023-04-03T04:14:05;5.40;;;3.95;;
76964;SDS011;65903;51.452;7.198;2023-04-03T04:15:06;7.32;;;3.97;;
76964;SDS011;65903;51.452;7.198;2023-04-03T04:16:11;5.10;;;3.13;;
76964;SDS011;65903;51.452;7.198;2023-04-03T04:17:12;6.97;;;3.17;;
76964;SDS011;65903;51.452;7.198;2023-04-03T04:18:13;7.13;;;3.85;;
76964;SDS011;65903;51.452;7.198;2023-04-03T04:19:15;9.68;;;3.80;;
76964;SDS011;65903;51.452;7.198;2023-04-03T04:20:15;6.47;;;3.05;;
76964;SDS011;65903;51.452;7.198;2023-04-03T04:21:16;6.13;;;3.65;;
76964;SDS011;65903;51.452;7.198;2023-04-03T04:22:17;9.10;;;3.80;;
76964;SDS011;65903;51.452;7.198;2023-04-03T04:23:20;4.82;;;2.97;;
76964;SDS011;65903;51.452;7.198;2023-04-03T04:24:21;6.47;;;3.60;;
76964;SDS011;65903;51.452;7.198;2023-04-03T04:25:23;4.65;;;3.30;;
76964;SDS011;65903;51.452;7.198;2023-04-03T04:26:23;6.40;;;3.55;;
76964;SDS011;65903;51.452;7.198;2023-04-03T04:27:27;5.82;;;3.00;;
76964;SDS011;65903;51.452;7.198;2023-04-03T04:28:27;5.68;;;3.45;;
76964;SDS011;65903;51.452;7.198;2023-04-03T04:29:28;7.57;;;3.67;;
76964;SDS011;65903;51.452;7.198;2023-04-03T04:30:29;6.72;;;3.25;;
76964;SDS011;65903;51.452;7.198;2023-04-03T04:31:30;5.32;;;4.05;;
76964;SDS011;65903;51.452;7.198;2023-04-03T04:32:31;6.53;;;3.83;;
76964;SDS011;65903;51.452;7.198;2023-04-03T04:33:34;7.30;;;3.30;;
76964;SDS011;65903;51.452;7.198;2023-04-03T04:34:36;8.18;;;3.33;;
76964;SDS011;65903;51.452;7.198;2023-04-03T04:35:36;4.50;;;3.33;;
76964;SDS011;65903;51.452;7.198;2023-04-03T04:36:40;6.25;;;2.85;;
76964;SDS011;65903;51.452;7.198;2023-04-03T04:37:40;8.63;;;3.28;;
76964;SDS011;65903;51.452;7.198;2023-04-03T04:38:41;9.80;;;3.30;;
76964;SDS011;65903;51.452;7.198;2023-04-03T04:39:42;9.57;;;3.92;;
76964;SDS011;65903;51.452;7.198;2023-04-03T04:40:43;6.93;;;3.50;;
76964;SDS011;65903;51.452;7.198;2023-04-03T04:41:44;5.32;;;3.15;;
76964;SDS011;65903;51.452;7.198;2023-04-03T04:42:45;8.05;;;3.60;;
76964;SDS011;65903;51.452;7.198;2023-04-03T04:43:48;8.75;;;4.15;;
76964;SDS011;65903;51.452;7.198;2023-04-03T04:44:54;7.63;;;3.38;;
76964;SDS011;65903;51.452;7.198;2023-04-03T04:46:15;5.32;;;2.92;;
76964;SDS011;65903;51.452;7.198;2023-04-03T04:47:17;6.57;;;3.13;;
76964;SDS011;65903;51.452;7.198;2023-04-03T04:48:20;7.57;;;3.22;;
76964;SDS011;65903;51.452;7.198;2023-04-03T04:49:24;5.15;;;3.50;;
76964;SDS011;65903;51.452;7.198;2023-04-03T04:50:27;7.20;;;3.35;;
76964;SDS011;65903;51.452;7.198;2023-04-03T04:51:28;11.43;;;4.00;;
76964;SDS011;65903;51.452;7.198;2023-04-03T04:52:33;7.32;;;3.38;;
76964;SDS011;65903;51.452;7.198;2023-04-03T04:53:34;7.90;;;3.70;;
76964;SDS011;65903;51.452;7.198;2023-04-03T04:54:35;5.28;;;2.90;;
76964;SDS011;65903;51.452;7.198;2023-04-03T04:55:36;5.55;;;3.38;;
76964;SDS011;65903;51.452;7.198;2023-04-03T04:56:37;6.15;;;2.95;;
76964;SDS011;65903;51.452;7.198;2023-04-03T04:57:38;6.13;;;3.08;;
76964;SDS011;65903;51.452;7.198;2023-04-03T04:58:41;6.20;;;3.35;;
76964;SDS011;65903;51.452;7.198;2023-04-03T04:59:44;8.48;;;4.22;;
76964;SDS011;65903;51.452;7.198;2023-04-03T05:00:45;11.68;;;3.80;;
76964;SDS011;65903;51.452;7.198;2023-04-03T05:01:46;5.97;;;3.20;;
76964;SDS011;65903;51.452;7.198;2023-04-03T05:02:49;5.00;;;3.33;;
76964;SDS011;65903;51.452;7.198;2023-04-03T05:03:52;8.95;;;3.97;;
76964;SDS011;65903;51.452;7.198;2023-04-03T05:04:56;12.88;;;3.58;;
76964;SDS011;65903;51.452;7.198;2023-04-03T05:06:02;5.70;;;3.20;;
76964;SDS011;65903;51.452;7.198;2023-04-03T05:07:03;7.75;;;4.18;;
76964;SDS011;65903;51.452;7.198;2023-04-03T05:09:08;7.85;;;3.05;;
76964;SDS011;65903;51.452;7.198;2023-04-03T05:10:11;8.25;;;3.83;;
76964;SDS011;65903;51.452;7.198;2023-04-03T05:11:12;9.05;;;4.03;;
76964;SDS011;65903;51.452;7.198;2023-04-03T05:12:13;7.68;;;4.18;;
76964;SDS011;65903;51.452;7.198;2023-04-03T05:13:14;7.78;;;3.90;;
76964;SDS011;65903;51.452;7.198;2023-04-03T05:14:15;6.28;;;3.42;;
76964;SDS011;65903;51.452;7.198;2023-04-03T05:15:16;8.38;;;4.40;;
76964;SDS011;65903;51.452;7.198;2023-04-03T05:17:20;7.45;;;3.28;;
76964;SDS011;65903;51.452;7.198;2023-04-03T05:18:21;7.93;;;3.55;;
76964;SDS011;65903;51.452;7.198;2023-04-03T05:19:22;6.85;;;3.53;;
76964;SDS011;65903;51.452;7.198;2023-04-03T05:20:25;7.70;;;3.60;;
76964;SDS011;65903;51.452;7.198;2023-04-03T05:22:28;6.43;;;3.58;;
76964;SDS011;65903;51.452;7.198;2023-04-03T05:23:29;7.20;;;3.53;;
76964;SDS011;65903;51.452;7.198;2023-04-03T05:24:32;6.18;;;3.80;;
76964;SDS011;65903;51.452;7.198;2023-04-03T05:25:33;8.23;;;4.10;;
76964;SDS011;65903;51.452;7.198;2023-04-03T05:26:34;5.75;;;3.15;;
76964;SDS011;65903;51.452;7.198;2023-04-03T05:27:35;6.70;;;3.42;;
76964;SDS011;65903;51.452;7.198;2023-04-03T05:28:38;7.10;;;3.92;;
76964;SDS011;65903;51.452;7.198;2023-04-03T05:29:39;6.63;;;3.88;;
76964;SDS011;65903;51.452;7.198;2023-04-03T05:30:40;5.95;;;3.28;;
76964;SDS011;65903;51.452;7.198;2023-04-03T05:31:41;10.05;;;3.85;;
76964;SDS011;65903;51.452;7.198;2023-04-03T05:32:42;6.20;;;3.83;;
76964;SDS011;65903;51.452;7.198;2023-04-03T05:33:43;7.00;;;3.80;;
76964;SDS011;65903;51.452;7.198;2023-04-03T05:34:43;6.60;;;2.78;;
76964;SDS011;65903;51.452;7.198;2023-04-03T05:35:47;6.82;;;4.10;;
76964;SDS011;65903;51.452;7.198;2023-04-03T05:36:50;7.03;;;3.60;;
76964;SDS011;65903;51.452;7.198;2023-04-03T05:37:53;6.25;;;3.35;;
76964;SDS011;65903;51.452;7.198;2023-04-03T05:38:59;6.57;;;3.03;;
76964;SDS011;65903;51.452;7.198;2023-04-03T05:41:03;8.80;;;4.25;;
76964;SDS011;65903;51.452;7.198;2023-04-03T05:42:03;4.45;;;3.67;;
76964;SDS011;65903;51.452;7.198;2023-04-03T05:44:07;7.03;;;3.08;;
76964;SDS011;65903;51.452;7.198;2023-04-03T05:45:08;9.20;;;3.53;;
76964;SDS011;65903;51.452;7.198;2023-04-03T05:46:13;7.75;;;3.13;;
76964;SDS011;65903;51.452;7.198;2023-04-03T05:47:18;6.72;;;3.40;;
76964;SDS011;65903;51.452;7.198;2023-04-03T05:48:19;6.03;;;3.40;;
76964;SDS011;65903;51.452;7.198;2023-04-03T05:49:22;6.15;;;3.58;;
76964;SDS011;65903;51.452;7.198;2023-04-03T05:50:23;7.75;;;3.42;;
76964;SDS011;65903;51.452;7.198;2023-04-03T05:51:25;5.97;;;3.30;;
76964;SDS011;65903;51.452;7.198;2023-04-03T05:52:35;9.48;;;3.25;;
76964;SDS011;65903;51.452;7.198;2023-04-03T05:53:39;9.57;;;3.25;;
76964;SDS011;65903;51.452;7.198;2023-04-03T05:54:42;6.68;;;3.17;;
76964;SDS011;65903;51.452;7.198;2023-04-03T05:55:46;8.63;;;3.38;;
76964;SDS011;65903;51.452;7.198;2023-04-03T05:56:47;5.00;;;3.85;;
76964;SDS011;65903;51.452;7.198;2023-04-03T05:57:48;5.20;;;3.35;;
76964;SDS011;65903;51.452;7.198;2023-04-03T05:58:51;4.20;;;3.50;;
76964;SDS011;65903;51.452;7.198;2023-04-03T06:00:52;7.38;;;3.70;;
76964;SDS011;65903;51.452;7.198;2023-04-03T06:02:56;6.30;;;3.75;;
76964;SDS011;65903;51.452;7.198;2023-04-03T06:03:59;6.55;;;4.05;;
76964;SDS011;65903;51.452;7.198;2023-04-03T06:05:05;7.60;;;2.83;;
76964;SDS011;65903;51.452;7.198;2023-04-03T06:06:07;8.95;;;3.88;;
76964;SDS011;65903;51.452;7.198;2023-04-03T06:07:11;8.48;;;2.70;;
76964;SDS011;65903;51.452;7.198;2023-04-03T06:08:16;6.57;;;3.47;;
76964;SDS011;65903;51.452;7.198;2023-04-03T06:09:21;7.18;;;2.97;;
76964;SDS011;65903;51.452;7.198;2023-04-03T06:10:25;8.88;;;4.28;;
76964;SDS011;65903;51.452;7.198;2023-04-03T06:11:26;6.68;;;3.38;;
76964;SDS011;65903;51.452;7.198;2023-04-03T06:12:30;5.57;;;3.05;;
76964;SDS011;65903;51.452;7.198;2023-04-03T06:13:31;4.72;;;2.85;;
76964;SDS011;65903;51.452;7.198;2023-04-03T06:14:34;5.88;;;3.30;;
76964;SDS011;65903;51.452;7.198;2023-04-03T06:15:36;6.45;;;3.00;;
76964;SDS011;65903;51.452;7.198;2023-04-03T06:16:40;7.60;;;2.90;;
76964;SDS011;65903;51.452;7.198;2023-04-03T06:17:41;8.43;;;3.55;;
76964;SDS011;65903;51.452;7.198;2023-04-03T06:19:47;4.05;;;2.90;;
76964;SDS011;65903;51.452;7.198;2023-04-03T06:20:48;6.85;;;3.85;;
76964;SDS011;65903;51.452;7.198;2023-04-03T06:21:49;7.13;;;4.10;;
76964;SDS011;65903;51.452;7.198;2023-04-03T06:22:50;5.55;;;3.30;;
76964;SDS011;65903;51.452;7.198;2023-04-03T06:23:53;7.82;;;3.10;;
76964;SDS011;65903;51.452;7.198;2023-04-03T06:24:54;7.18;;;4.32;;
76964;SDS011;65903;51.452;7.198;2023-04-03T06:25:55;6.63;;;2.67;;
76964;SDS011;65903;51.452;7.198;2023-04-03T06:26:56;5.55;;;3.40;;
76964;SDS011;65903;51.452;7.198;2023-04-03T06:27:59;5.35;;;3.13;;
76964;SDS011;65903;51.452;7.198;2023-04-03T06:29:00;7.70;;;3.38;;
76964;SDS011;65903;51.452;7.198;2023-04-03T06:30:04;5.55;;;3.13;;
76964;SDS011;65903;51.452;7.198;2023-04-03T06:31:06;6.03;;;3.42;;
76964;SDS011;65903;51.452;7.198;2023-04-03T06:32:07;7.20;;;3.38;;
76964;SDS011;65903;51.452;7.198;2023-04-03T06:33:08;7.57;;;3.35;;
76964;SDS011;65903;51.452;7.198;2023-04-03T06:34:13;4.15;;;3.20;;
76964;SDS011;65903;51.452;7.198;2023-04-03T06:35:15;6.72;;;3.47;;
76964;SDS011;65903;51.452;7.198;2023-04-03T06:36:19;4.03;;;3.08;;
76964;SDS011;65903;51.452;7.198;2023-04-03T06:37:21;5.00;;;4.03;;
76964;SDS011;65903;51.452;7.198;2023-04-03T06:38:22;6.90;;;2.88;;
76964;SDS011;65903;51.452;7.198;2023-04-03T06:39:23;5.90;;;3.78;;
76964;SDS011;65903;51.452;7.198;2023-04-03T06:40:24;6.88;;;3.72;;
76964;SDS011;65903;51.452;7.198;2023-04-03T06:41:28;5.50;;;3.88;;
76964;SDS011;65903;51.452;7.198;2023-04-03T06:42:29;6.57;;;3.85;;
76964;SDS011;65903;51.452;7.198;2023-04-03T06:43:30;6.97;;;3.22;;